createdAt,value
2022-08-24T00:04:09.087Z,363.77
2022-08-24T00:09:16.259Z,363.31
2022-08-24T00:14:23.496Z,363.24
2022-08-24T00:19:30.675Z,363.80
2022-08-24T00:24:37.926Z,364.13
2022-08-24T00:29:45.252Z,364.18
2022-08-24T00:34:58.558Z,364.46
2022-08-24T00:39:59.722Z,364.08
2022-08-24T00:45:06.878Z,364.15
2022-08-24T00:50:14.051Z,363.92
2022-08-24T00:55:21.232Z,363.93
2022-08-24T01:00:28.469Z,364.35
2022-08-24T01:05:35.629Z,364.65
2022-08-24T01:10:42.864Z,364.43
2022-08-24T01:15:50.124Z,364.84
2022-08-24T01:20:57.273Z,365.02
2022-08-24T01:26:04.422Z,364.79
2022-08-24T01:31:11.637Z,364.34
2022-08-24T01:36:18.825Z,364.94
2022-08-24T01:41:29.099Z,365.47
2022-08-24T01:46:33.257Z,365.71
2022-08-24T01:51:41.651Z,365.85
2022-08-24T01:56:48.868Z,366.31
2022-08-24T02:01:56.135Z,366.53
2022-08-24T02:07:03.227Z,365.87
2022-08-24T02:12:10.418Z,365.26
2022-08-24T02:17:17.592Z,365.45
2022-08-24T02:22:24.755Z,365.37
2022-08-24T02:27:32.027Z,365.04
2022-08-24T02:32:39.281Z,365.04
2022-08-24T02:37:46.506Z,364.86
2022-08-24T02:42:55.675Z,364.70
2022-08-24T02:48:02.930Z,364.21
2022-08-24T02:53:10.114Z,364.58
2022-08-24T02:58:17.379Z,364.24
2022-08-24T03:03:24.545Z,364.51
2022-08-24T03:08:31.748Z,364.65
2022-08-24T03:13:38.951Z,364.96
2022-08-24T03:18:46.130Z,364.68
2022-08-24T03:23:53.307Z,365.22
2022-08-24T03:29:00.486Z,365.37
2022-08-24T03:34:07.691Z,365.30
2022-08-24T03:39:14.881Z,365.64
2022-08-24T03:44:23.337Z,365.41
2022-08-24T03:49:29.268Z,365.22
2022-08-24T03:54:36.513Z,365.04
2022-08-24T03:59:46.823Z,364.93
2022-08-24T04:04:51.198Z,365.92
2022-08-24T04:09:58.375Z,365.94
2022-08-24T04:15:05.607Z,365.17
2022-08-24T04:20:12.844Z,365.06
2022-08-24T04:25:24.684Z,364.96
2022-08-24T04:30:27.203Z,365.06
2022-08-24T04:35:34.417Z,365.35
2022-08-24T04:40:41.665Z,365.22
2022-08-24T04:45:48.922Z,364.77
2022-08-24T04:50:56.169Z,364.30
2022-08-24T04:56:03.364Z,364.40
2022-08-24T05:01:10.683Z,364.52
2022-08-24T05:06:17.818Z,364.16
2022-08-24T05:11:25.529Z,364.04
2022-08-24T05:16:33.054Z,363.36
2022-08-24T05:21:40.215Z,363.23
2022-08-24T05:26:47.434Z,363.08
2022-08-24T05:31:54.642Z,362.65
2022-08-24T05:37:04.601Z,363.15
2022-08-24T05:42:11.828Z,362.75
2022-08-24T05:47:19.012Z,362.89
2022-08-24T05:52:26.190Z,363.18
2022-08-24T05:57:33.487Z,361.85
2022-08-24T06:02:43.376Z,361.73
2022-08-24T06:07:50.510Z,361.49
2022-08-24T06:12:57.848Z,361.82
2022-08-24T06:18:05.068Z,362.03
2022-08-24T06:23:12.202Z,361.70
2022-08-24T06:28:19.384Z,361.87
2022-08-24T06:33:26.613Z,361.91
2022-08-24T06:38:33.772Z,361.55
2022-08-24T06:43:40.972Z,361.68
2022-08-24T06:48:48.219Z,361.25
2022-08-24T06:53:55.426Z,361.13
2022-08-24T06:59:02.621Z,361.19
2022-08-24T07:04:09.813Z,360.81
2022-08-24T07:09:17.047Z,361.17
2022-08-24T07:14:24.225Z,360.98
2022-08-24T07:19:32.280Z,360.42
2022-08-24T07:24:39.463Z,360.06
2022-08-24T07:29:56.272Z,360.24
2022-08-24T07:34:54.162Z,360.94
2022-08-24T07:40:01.436Z,361.07
2022-08-24T07:45:08.675Z,361.35
2022-08-24T07:50:15.922Z,361.18
2022-08-24T07:55:23.137Z,360.95
2022-08-24T08:00:30.378Z,361.36
2022-08-24T08:05:37.626Z,361.15
2022-08-24T08:10:44.863Z,361.53
2022-08-24T08:15:53.206Z,361.41
2022-08-24T08:20:59.349Z,360.91
2022-08-24T08:26:06.583Z,361.25
2022-08-24T08:31:13.885Z,361.70
2022-08-24T08:36:21.023Z,361.48
2022-08-24T08:41:28.264Z,361.57
2022-08-24T08:46:40.119Z,361.59
2022-08-24T08:51:42.760Z,361.62
2022-08-24T08:56:49.963Z,362.32
2022-08-24T09:01:57.209Z,362.37
2022-08-24T09:07:04.373Z,362.37
2022-08-24T09:12:11.557Z,362.36
2022-08-24T09:17:18.852Z,362.41
2022-08-24T09:22:26.205Z,363.01
2022-08-24T09:27:33.495Z,363.27
2022-08-24T09:32:41.168Z,363.58
2022-08-24T09:37:47.930Z,363.65
2022-08-24T09:42:55.133Z,363.64
2022-08-24T09:48:02.370Z,364.18
2022-08-24T09:53:09.610Z,364.57
2022-08-24T09:58:16.820Z,364.30
2022-08-24T10:03:27.333Z,364.93
2022-08-24T10:08:31.261Z,365.21
2022-08-24T10:13:40.547Z,365.50
2022-08-24T10:18:47.782Z,366.11
2022-08-24T10:23:54.962Z,366.53
2022-08-24T10:29:02.111Z,367.11
2022-08-24T10:34:09.359Z,367.45
2022-08-24T10:39:16.574Z,367.96
2022-08-24T10:44:23.777Z,368.45
2022-08-24T10:49:30.971Z,368.94
2022-08-24T10:54:38.159Z,368.78
2022-08-24T10:59:45.374Z,369.25
2022-08-24T11:04:53.202Z,369.24
2022-08-24T11:10:00.432Z,369.77
2022-08-24T11:15:07.684Z,370.24
2022-08-24T11:20:14.929Z,370.19
2022-08-24T11:25:22.083Z,371.01
2022-08-24T11:30:29.274Z,371.07
2022-08-24T11:35:36.534Z,371.47
2022-08-24T11:40:43.720Z,371.61
2022-08-24T11:45:50.929Z,371.86
2022-08-24T11:50:58.208Z,372.16
2022-08-24T11:56:05.619Z,372.27
2022-08-24T12:01:12.912Z,372.41
2022-08-24T12:06:20.322Z,372.55
2022-08-24T12:11:27.565Z,372.91
2022-08-24T12:16:34.839Z,372.57
2022-08-24T12:21:42.012Z,372.88
2022-08-24T12:26:49.460Z,373.18
2022-08-24T12:31:56.742Z,373.76
2022-08-24T12:37:04.811Z,374.31
2022-08-24T12:42:15.743Z,374.16
2022-08-24T12:47:18.616Z,374.54
2022-08-24T12:52:25.838Z,374.97
2022-08-24T12:57:33.092Z,374.68
2022-08-24T13:02:44.362Z,375.25
2022-08-24T13:07:47.557Z,376.33
2022-08-24T13:12:54.833Z,376.39
2022-08-24T13:18:03.511Z,377.01
2022-08-24T13:23:09.277Z,377.10
2022-08-24T13:28:16.500Z,377.51
2022-08-24T13:33:23.656Z,378.21
2022-08-24T13:38:30.888Z,377.76
2022-08-24T13:43:38.740Z,378.05
2022-08-24T13:48:45.866Z,378.27
2022-08-24T13:53:53.141Z,377.98
2022-08-24T13:59:00.315Z,377.91
2022-08-24T14:04:07.563Z,378.05
2022-08-24T14:09:14.767Z,378.61
2022-08-24T14:14:21.959Z,378.48
2022-08-24T14:19:29.160Z,378.45
2022-08-24T14:24:36.377Z,378.86
2022-08-24T14:29:43.628Z,378.53
2022-08-24T14:34:50.806Z,378.41
2022-08-24T14:39:58.245Z,378.61
2022-08-24T14:45:05.438Z,378.48
2022-08-24T14:50:15.969Z,378.45
2022-08-24T14:55:23.214Z,378.14
2022-08-24T15:00:30.486Z,378.43
2022-08-24T15:05:37.821Z,378.57
2022-08-24T15:10:44.926Z,378.82
2022-08-24T15:15:53.833Z,378.66
2022-08-24T15:21:00.989Z,378.46
2022-08-24T15:26:08.270Z,378.58
2022-08-24T15:31:15.571Z,378.78
2022-08-24T15:36:22.700Z,378.99
2022-08-24T15:41:29.955Z,379.27
2022-08-24T15:46:37.241Z,379.01
2022-08-24T15:51:44.374Z,378.86
2022-08-24T15:56:51.588Z,379.02
2022-08-24T16:01:58.829Z,378.35
2022-08-24T16:07:06.112Z,378.57
2022-08-24T16:12:14.040Z,378.12
2022-08-24T16:17:20.750Z,378.20
2022-08-24T16:22:27.934Z,378.69
2022-08-24T16:27:35.122Z,378.76
2022-08-24T16:32:51.662Z,378.45
2022-08-24T16:37:49.667Z,378.28
2022-08-24T16:42:56.867Z,377.87
2022-08-24T16:48:04.323Z,378.12
2022-08-24T16:53:11.211Z,378.20
2022-08-24T16:58:18.449Z,377.94
2022-08-24T17:03:25.701Z,377.53
2022-08-24T17:08:32.912Z,376.99
2022-08-24T17:13:49.824Z,376.59
2022-08-24T17:18:47.343Z,375.65
2022-08-24T17:23:54.544Z,375.47
2022-08-24T17:29:01.809Z,375.16
2022-08-24T17:34:09.006Z,374.93
2022-08-24T17:39:16.196Z,374.75
2022-08-24T17:44:23.395Z,374.36
2022-08-24T17:49:30.559Z,374.23
2022-08-24T17:54:37.780Z,374.11
2022-08-24T17:59:44.980Z,374.11
2022-08-24T18:04:52.195Z,374.32
2022-08-24T18:09:59.379Z,373.94
2022-08-24T18:15:06.541Z,373.72
2022-08-24T18:20:13.730Z,373.60
2022-08-24T18:25:20.892Z,373.29
2022-08-24T18:30:30.491Z,372.49
2022-08-24T18:35:35.316Z,372.10
2022-08-24T18:40:52.376Z,371.99
2022-08-24T18:45:49.816Z,371.78
2022-08-24T18:50:59.587Z,371.42
2022-08-24T18:56:11.777Z,371.07
2022-08-24T19:01:14.189Z,370.91
2022-08-24T19:06:21.435Z,370.94
2022-08-24T19:11:28.710Z,370.46
2022-08-24T19:16:36.241Z,370.08
2022-08-24T19:21:43.537Z,369.71
2022-08-24T19:26:51.008Z,369.69
2022-08-24T19:31:58.775Z,370.07
2022-08-24T19:37:06.208Z,370.04
2022-08-24T19:42:13.632Z,369.84
2022-08-24T19:47:21.265Z,369.91
2022-08-24T19:52:28.710Z,369.54
2022-08-24T19:57:35.913Z,369.64
2022-08-24T20:02:43.218Z,369.47
2022-08-24T20:07:50.457Z,369.72
2022-08-24T20:12:57.687Z,369.81
2022-08-24T20:18:04.942Z,369.69
2022-08-24T20:23:12.133Z,369.30
2022-08-24T20:28:29.313Z,369.98
2022-08-24T20:33:26.513Z,369.81
2022-08-24T20:38:33.786Z,369.82
2022-08-24T20:43:41.040Z,369.50
2022-08-24T20:48:55.326Z,370.15
2022-08-24T20:53:55.454Z,370.07
2022-08-24T20:59:02.636Z,370.26
2022-08-24T21:04:09.965Z,370.11
2022-08-24T21:09:17.075Z,370.23
2022-08-24T21:14:24.286Z,370.06
2022-08-24T21:19:32.281Z,369.94
2022-08-24T21:24:39.454Z,369.79
2022-08-24T21:29:46.655Z,370.07
2022-08-24T21:34:53.845Z,370.04
2022-08-24T21:40:01.157Z,369.59
2022-08-24T21:45:08.196Z,370.39
2022-08-24T21:50:15.407Z,370.23
2022-08-24T21:55:22.559Z,370.30
2022-08-24T22:00:29.763Z,370.07
2022-08-24T22:05:36.937Z,369.97
2022-08-24T22:10:44.201Z,370.70
2022-08-24T22:15:51.501Z,370.77
2022-08-24T22:20:58.604Z,370.12
2022-08-24T22:26:05.749Z,370.53
2022-08-24T22:31:13.032Z,370.30
2022-08-24T22:36:20.147Z,370.27
2022-08-24T22:41:27.341Z,370.94
2022-08-24T22:46:34.592Z,371.16
2022-08-24T22:51:41.701Z,371.35
2022-08-24T22:56:48.909Z,371.79
2022-08-24T23:01:56.263Z,371.90
2022-08-24T23:07:03.356Z,371.83
2022-08-24T23:12:10.544Z,372.03
2022-08-24T23:17:17.705Z,372.68
2022-08-24T23:22:25.689Z,372.90
2022-08-24T23:27:33.049Z,372.59
2022-08-24T23:32:39.384Z,372.43
2022-08-24T23:37:46.602Z,372.39
2022-08-24T23:42:53.812Z,373.16
2022-08-24T23:48:01.052Z,373.68
2022-08-24T23:53:08.336Z,374.20
2022-08-24T23:58:15.552Z,374.62
